Aviation Digital Data Service (ADDS)

Output produced by METARs form (0856 UTC 26 May 2019)
found at http://www.aviationweather.gov/metar/data/
 
KPHL 260833Z 2609/2712 25005KT 6SM BR OVC015 
     TEMPO 2609/2612 OVC008 
     FM261200 28007KT P6SM FEW020 
     TEMPO 2612/2614 BKN020 
     FM261600 29012G18KT P6SM FEW045 
     FM262100 29010KT P6SM VCSH SCT050 SCT100 
     FM270700 35006KT P6SM BKN040